createdAt,value
2022-08-17T00:01:09.585Z,3.03
2022-08-17T00:06:16.642Z,2.70
2022-08-17T00:11:22.587Z,2.50
2022-08-17T00:16:55.505Z,2.92
2022-08-17T00:22:33.752Z,2.50
2022-08-17T00:27:24.352Z,2.50
2022-08-17T00:33:13.692Z,2.50
2022-08-17T00:37:50.614Z,2.60
2022-08-17T00:42:54.688Z,2.72
2022-08-17T00:47:57.770Z,2.67
2022-08-17T00:53:00.514Z,2.65
2022-08-17T00:58:05.923Z,2.22
2022-08-17T01:03:11.988Z,2.45
2022-08-17T01:08:16.377Z,2.80
2022-08-17T01:13:20.765Z,2.58
2022-08-17T01:18:23.807Z,2.42
2022-08-17T01:23:28.809Z,2.50
2022-08-17T01:28:53.155Z,2.55
2022-08-17T01:33:58.251Z,2.80
2022-08-17T01:39:02.427Z,2.22
2022-08-17T01:44:07.415Z,2.45
2022-08-17T01:49:12.577Z,2.40
2022-08-17T01:54:18.807Z,2.15
2022-08-17T01:59:21.580Z,2.30
2022-08-17T02:04:24.470Z,2.35
2022-08-17T02:09:30.575Z,2.60
2022-08-17T02:14:34.058Z,2.28
2022-08-17T02:19:36.750Z,2.40
2022-08-17T02:25:00.784Z,2.20
2022-08-17T02:30:04.121Z,2.60
2022-08-17T02:35:26.818Z,2.22
2022-08-17T02:40:35.726Z,2.67
2022-08-17T02:45:39.645Z,2.22
2022-08-17T02:50:42.353Z,3.03
2022-08-17T02:55:46.456Z,2.50
2022-08-17T03:00:49.484Z,2.58
2022-08-17T03:05:53.116Z,2.65
2022-08-17T03:10:57.467Z,2.50
2022-08-17T03:16:00.274Z,2.38
2022-08-17T03:21:04.288Z,2.63
2022-08-17T03:26:12.336Z,2.70
2022-08-17T03:31:18.614Z,2.58
2022-08-17T03:36:21.426Z,2.65
2022-08-17T03:41:25.543Z,2.50
2022-08-17T03:46:42.209Z,2.63
2022-08-17T03:52:02.330Z,2.70
2022-08-17T03:57:08.546Z,3.38
2022-08-17T04:02:13.123Z,2.80
2022-08-17T04:07:15.858Z,3.15
2022-08-17T04:12:21.777Z,2.72
2022-08-17T04:17:26.162Z,3.05
2022-08-17T04:22:31.402Z,2.88
2022-08-17T04:27:38.105Z,3.00
2022-08-17T04:33:00.649Z,3.38
2022-08-17T04:38:13.160Z,2.97
2022-08-17T04:43:19.455Z,2.80
2022-08-17T04:48:22.459Z,3.13
2022-08-17T04:53:25.343Z,2.88
2022-08-17T04:58:29.552Z,3.17
2022-08-17T05:03:32.307Z,3.83
2022-08-17T05:08:35.032Z,2.88
2022-08-17T05:13:39.095Z,2.95
2022-08-17T05:18:41.801Z,3.15
2022-08-17T05:23:46.132Z,3.30
2022-08-17T05:29:02.614Z,3.17
2022-08-17T05:34:05.634Z,3.38
2022-08-17T05:39:08.303Z,3.40
2022-08-17T05:44:20.089Z,3.35
2022-08-17T05:49:27.451Z,3.55
2022-08-17T05:54:39.445Z,3.42
2022-08-17T05:59:51.878Z,2.92
2022-08-17T06:05:05.826Z,3.15
2022-08-17T06:10:14.604Z,3.67
2022-08-17T06:15:30.979Z,3.22
2022-08-17T06:20:38.939Z,3.17
2022-08-17T06:25:46.109Z,3.38
2022-08-17T06:31:00.743Z,3.28
2022-08-17T06:36:11.514Z,3.33
2022-08-17T06:41:24.273Z,2.88
2022-08-17T06:46:32.415Z,3.15
2022-08-17T06:51:39.478Z,3.00
2022-08-17T06:56:53.511Z,3.28
2022-08-17T07:02:04.813Z,3.25
2022-08-17T07:07:24.289Z,3.00
2022-08-17T07:12:29.577Z,3.55
2022-08-17T07:17:47.845Z,3.60
2022-08-17T07:22:59.800Z,3.38
2022-08-17T07:28:06.930Z,3.33
2022-08-17T07:33:14.336Z,2.70
2022-08-17T07:38:25.485Z,3.15
2022-08-17T07:43:31.189Z,3.90
2022-08-17T07:48:39.154Z,3.28
2022-08-17T07:53:42.388Z,3.70
2022-08-17T07:58:47.413Z,2.92
2022-08-17T08:03:52.782Z,2.90
2022-08-17T08:08:56.903Z,3.25
2022-08-17T08:14:29.276Z,3.20
2022-08-17T08:19:34.746Z,3.30
2022-08-17T08:24:52.916Z,2.75
2022-08-17T08:30:02.851Z,2.85
2022-08-17T08:35:10.222Z,2.80
2022-08-17T08:40:27.842Z,2.78
2022-08-17T08:45:42.285Z,2.88
2022-08-17T08:50:49.241Z,3.20
2022-08-17T08:55:56.344Z,2.80
2022-08-17T09:00:59.797Z,2.97
2022-08-17T09:06:28.679Z,3.13
2022-08-17T09:12:02.303Z,2.95
2022-08-17T09:17:09.139Z,2.10
2022-08-17T09:22:25.708Z,2.67
2022-08-17T09:27:32.061Z,2.40
2022-08-17T09:32:38.985Z,2.33
2022-08-17T09:37:51.141Z,2.40
2022-08-17T09:42:56.984Z,2.30
2022-08-17T09:48:04.923Z,2.50
2022-08-17T09:53:09.347Z,2.15
2022-08-17T09:58:18.526Z,2.95
2022-08-17T10:03:34.328Z,2.72
2022-08-17T10:08:43.326Z,2.30
2022-08-17T10:13:53.417Z,2.05
2022-08-17T10:19:04.444Z,2.22
2022-08-17T10:24:30.660Z,2.53
2022-08-17T10:29:48.618Z,2.42
2022-08-17T10:35:00.638Z,2.30
2022-08-17T10:40:20.734Z,2.60
2022-08-17T10:45:27.043Z,2.40
2022-08-17T10:50:50.580Z,2.35
2022-08-17T10:56:23.180Z,2.88
2022-08-17T11:02:04.322Z,2.50
2022-08-17T11:07:12.041Z,2.33
2022-08-17T11:12:32.555Z,1.67
2022-08-17T11:18:02.540Z,1.80
2022-08-17T11:23:21.864Z,1.90
2022-08-17T11:28:34.252Z,2.03
2022-08-17T11:33:56.680Z,1.58
2022-08-17T11:39:06.013Z,1.85
2022-08-17T11:44:19.336Z,1.48
2022-08-17T11:49:53.476Z,1.88
2022-08-17T11:55:07.728Z,1.58
2022-08-17T12:00:52.418Z,1.55
2022-08-17T12:06:04.228Z,1.73
2022-08-17T12:11:09.609Z,1.45
2022-08-17T12:16:16.650Z,1.50
2022-08-17T12:21:46.238Z,1.15
2022-08-17T12:26:53.458Z,1.20
2022-08-17T12:31:58.178Z,1.40
2022-08-17T12:37:02.791Z,1.20
2022-08-17T12:42:07.902Z,1.15
2022-08-17T12:47:21.802Z,1.35
2022-08-17T12:52:27.476Z,1.05
2022-08-17T12:57:32.982Z,1.17
2022-08-17T13:02:46.361Z,1.60
2022-08-17T13:07:50.481Z,1.40
2022-08-17T13:12:54.067Z,1.50
2022-08-17T13:18:01.770Z,1.02
2022-08-17T13:23:11.859Z,1.20
2022-08-17T13:28:30.593Z,1.70
2022-08-17T13:33:43.682Z,1.30
2022-08-17T13:38:50.922Z,1.30
2022-08-17T13:43:53.679Z,1.38
2022-08-17T13:49:03.228Z,1.20
2022-08-17T13:54:16.584Z,1.33
2022-08-17T13:59:53.727Z,1.58
2022-08-17T14:04:53.574Z,1.27
2022-08-17T14:09:59.787Z,1.23
2022-08-17T14:15:03.471Z,1.15
2022-08-17T14:20:10.583Z,1.08
2022-08-17T14:25:14.670Z,1.33
2022-08-17T14:30:19.811Z,1.10
2022-08-17T14:35:24.607Z,1.00
2022-08-17T14:40:28.180Z,1.05
2022-08-17T14:45:32.735Z,1.17
2022-08-17T14:50:38.393Z,1.08
2022-08-17T14:55:41.118Z,1.50
2022-08-17T15:00:44.009Z,1.20
2022-08-17T15:05:48.636Z,1.02
2022-08-17T15:10:54.220Z,1.40
2022-08-17T15:15:59.196Z,1.40
2022-08-17T15:21:05.042Z,1.30
2022-08-17T15:26:08.437Z,1.50
2022-08-17T15:31:11.255Z,1.33
2022-08-17T15:36:15.525Z,1.17
2022-08-17T15:41:19.491Z,1.33
2022-08-17T15:46:24.236Z,1.20
2022-08-17T15:51:30.987Z,1.42
2022-08-17T15:56:33.823Z,1.20
2022-08-17T16:03:01.708Z,1.30
2022-08-17T16:07:01.167Z,1.02
2022-08-17T16:12:10.633Z,1.30
2022-08-17T16:17:38.824Z,1.15
2022-08-17T16:22:40.224Z,1.25
2022-08-17T16:27:43.487Z,1.40
2022-08-17T16:32:46.574Z,1.40
2022-08-17T16:37:54.256Z,1.35
2022-08-17T16:42:57.743Z,1.25
2022-08-17T16:48:01.506Z,1.27
2022-08-17T16:53:08.962Z,1.50
2022-08-17T16:58:11.760Z,1.40
2022-08-17T17:03:19.451Z,1.38
2022-08-17T17:08:30.290Z,1.30
2022-08-17T17:13:38.883Z,1.10
2022-08-17T17:18:43.872Z,1.13
2022-08-17T17:23:54.421Z,1.20
2022-08-17T17:29:09.434Z,1.10
2022-08-17T17:34:13.713Z,1.23
2022-08-17T17:39:19.608Z,1.73
2022-08-17T17:44:25.725Z,1.30
2022-08-17T17:49:31.192Z,1.52
2022-08-17T17:54:43.761Z,1.65
2022-08-17T17:59:51.275Z,1.58
2022-08-17T18:05:00.863Z,1.40
2022-08-17T18:10:29.861Z,1.45
2022-08-17T18:15:37.251Z,1.30
2022-08-17T18:20:53.125Z,1.60
2022-08-17T18:25:59.377Z,1.65
2022-08-17T18:31:12.913Z,2.13
2022-08-17T18:36:27.733Z,1.98
2022-08-17T18:41:41.294Z,2.10
2022-08-17T18:46:44.380Z,2.25
2022-08-17T18:51:47.560Z,1.80
2022-08-17T18:56:54.109Z,1.77
2022-08-17T19:02:13.853Z,1.63
2022-08-17T19:07:29.191Z,3.10
2022-08-17T19:12:37.866Z,1.75
2022-08-17T19:17:49.262Z,2.40
2022-08-17T19:22:58.783Z,1.98
2022-08-17T19:28:21.464Z,2.25
2022-08-17T19:33:25.068Z,2.40
2022-08-17T19:38:37.438Z,2.20
2022-08-17T19:43:52.243Z,2.28
2022-08-17T19:49:00.149Z,1.83
2022-08-17T19:54:07.430Z,1.88
2022-08-17T19:59:17.386Z,1.92
2022-08-17T20:04:34.603Z,1.95
2022-08-17T20:09:40.206Z,1.90
2022-08-17T20:14:55.124Z,2.10
2022-08-17T20:20:03.361Z,2.17
2022-08-17T20:25:09.688Z,2.08
2022-08-17T20:30:15.810Z,2.05
2022-08-17T20:35:27.472Z,2.10
2022-08-17T20:40:35.135Z,2.00
2022-08-17T20:46:08.795Z,1.92
2022-08-17T20:51:17.826Z,2.25
2022-08-17T20:56:52.011Z,2.03
2022-08-17T21:02:18.340Z,1.80
2022-08-17T21:07:29.009Z,2.08
2022-08-17T21:12:43.057Z,1.95
2022-08-17T21:17:51.342Z,2.03
2022-08-17T21:23:09.165Z,2.10
2022-08-17T21:28:17.304Z,1.80
2022-08-17T21:33:31.420Z,1.83
2022-08-17T21:38:36.591Z,1.83
2022-08-17T21:43:47.701Z,1.65
2022-08-17T21:48:54.434Z,2.13
2022-08-17T21:53:59.525Z,1.90
2022-08-17T21:59:04.358Z,1.85
2022-08-17T22:04:21.978Z,2.05
2022-08-17T22:09:27.071Z,1.90
2022-08-17T22:14:53.370Z,2.20
2022-08-17T22:20:00.398Z,2.58
2022-08-17T22:25:07.361Z,2.13
2022-08-17T22:30:19.083Z,2.15
2022-08-17T22:35:33.614Z,2.40
2022-08-17T22:40:36.365Z,2.50
2022-08-17T22:45:41.606Z,2.40
2022-08-17T22:50:45.734Z,2.47
2022-08-17T22:56:09.971Z,2.17
2022-08-17T23:01:28.277Z,1.98
2022-08-17T23:06:33.777Z,2.40
2022-08-17T23:11:49.254Z,2.50
2022-08-17T23:16:53.147Z,2.50
2022-08-17T23:21:57.855Z,2.13
2022-08-17T23:27:00.641Z,2.15
2022-08-17T23:32:04.730Z,2.35
2022-08-17T23:37:11.028Z,2.40
2022-08-17T23:42:16.814Z,2.47
2022-08-17T23:47:19.808Z,2.45
2022-08-17T23:52:24.326Z,2.17
2022-08-17T23:57:33.578Z,2.40
